KCVO/CVO METAR and TAF weather

Enter ICAO airport designator
Station Type Date Time Source
KCVO METAR 2020/01/24 15:32 UTC NOAA

KCVO 241532Z AUTO 17008KT 10SM BKN026 OVC032 09/08 A3003 RMK AO2 RAE15 P0000


Station Type Date Time Source
KCVO Decoded METAR 2020/01/24 15:32 UTC NOAA

Corvallis, Corvallis Municipal Airport, OR, United States (KCVO) 44-30N 123-17W
Jan 24, 2020 - 10:32 AM EST / 2020.01.24 1532 UTC
Wind: from the S (170 degrees) at 9 MPH (8 KT):0
Visibility: 10 mile(s):0
Sky conditions: overcast
Precipitation last hour: A trace
Temperature: 48 F (9 C)
Dew Point: 46 F (8 C)
Relative Humidity: 93%
Pressure (altimeter): 30.03 in. Hg (1016 hPa)
ob: KCVO 241532Z AUTO 17008KT 10SM BKN026 OVC032 09/08 A3003 RMK AO2 RAE15 P0000
cycle: 15

Station Type Date Time Source
KCVO TAF UTC NOAA

Error!

Example: see airport list